createdAt,value
2018-06-22T00:03:19.307Z,9.46
2018-06-22T00:09:14.291Z,8.35
2018-06-22T00:15:09.305Z,8.52
2018-06-22T00:21:04.327Z,10.62
2018-06-22T00:26:59.345Z,8.68
2018-06-22T00:32:54.349Z,13.89
2018-06-22T00:38:49.318Z,9.69
2018-06-22T00:44:44.317Z,11.61
2018-06-22T00:50:39.338Z,11.82
2018-06-22T00:56:34.284Z,10.98
2018-06-22T01:02:29.353Z,11.84
2018-06-22T01:08:24.369Z,13.83
2018-06-22T01:14:19.351Z,13.47
2018-06-22T01:20:14.403Z,13.98
2018-06-22T01:26:09.324Z,15.42
2018-06-22T01:32:04.411Z,14.72
2018-06-22T01:37:59.344Z,18.84
2018-06-22T01:43:54.366Z,14.56
2018-06-22T01:49:49.406Z,16.22
2018-06-22T01:55:44.348Z,14.45
2018-06-22T02:01:39.344Z,11.01
2018-06-22T02:07:34.363Z,13.48
2018-06-22T02:13:29.418Z,13.83
2018-06-22T02:19:24.383Z,13.83
2018-06-22T02:25:19.400Z,12.57
2018-06-22T02:31:14.460Z,12.61
2018-06-22T02:37:09.434Z,11.81
2018-06-22T02:43:04.439Z,11.03
2018-06-22T02:48:59.404Z,10.83
2018-06-22T02:54:54.451Z,11.8
2018-06-22T03:00:49.501Z,14.19
2018-06-22T03:06:44.438Z,11.84
2018-06-22T03:12:39.464Z,11.76
2018-06-22T03:18:34.429Z,12.22
2018-06-22T03:24:29.473Z,11.87
2018-06-22T03:30:24.472Z,17.85
2018-06-22T03:36:19.437Z,15.35
2018-06-22T03:42:14.462Z,16.23
2018-06-22T03:48:09.494Z,25.42
2018-06-22T03:54:04.553Z,13.06
2018-06-22T03:59:59.493Z,14.1
2018-06-22T04:05:54.477Z,14.79
2018-06-22T04:11:49.508Z,16.12
2018-06-22T04:17:44.489Z,15.23
2018-06-22T04:23:39.506Z,14.2
2018-06-22T04:29:34.520Z,19.83
2018-06-22T04:35:29.487Z,13.96
2018-06-22T04:41:24.491Z,14.45
2018-06-22T04:47:19.502Z,18.51
2018-06-22T04:53:14.547Z,19.04
2018-06-22T04:59:09.513Z,15.11
2018-06-22T05:05:04.523Z,14.56
2018-06-22T05:10:59.487Z,26.13
2018-06-22T05:16:54.591Z,14.84
2018-06-22T05:22:49.591Z,16.37
2018-06-22T05:28:44.521Z,12.11
2018-06-22T05:34:39.624Z,16.81
2018-06-22T05:40:34.602Z,17.03
2018-06-22T05:46:29.547Z,12.45
2018-06-22T05:52:24.530Z,17.83
2018-06-22T05:58:19.581Z,11.71
2018-06-22T06:04:14.571Z,12.27
2018-06-22T06:10:09.570Z,14.49
2018-06-22T06:16:04.576Z,14.93
2018-06-22T06:21:59.563Z,18.9
2018-06-22T06:27:54.626Z,13.93
2018-06-22T06:33:49.602Z,15.28
2018-06-22T06:39:44.664Z,15.6
2018-06-22T06:45:39.582Z,19
2018-06-22T06:51:34.658Z,21.14
2018-06-22T06:57:29.655Z,14.94
2018-06-22T07:03:24.605Z,16.6
2018-06-22T07:09:19.583Z,17.22
2018-06-22T07:15:14.639Z,18.67
2018-06-22T07:21:09.635Z,21.92
2018-06-22T07:27:04.609Z,14.68
2018-06-22T07:32:59.611Z,18.37
2018-06-22T07:38:54.611Z,18.99
2018-06-22T07:44:49.635Z,20.92
2018-06-22T07:50:44.682Z,16.99
2018-06-22T07:56:39.648Z,20.23
2018-06-22T08:02:34.657Z,24.27
2018-06-22T08:08:29.629Z,19.64
2018-06-22T08:14:24.696Z,20.31
2018-06-22T08:20:19.687Z,20.09
2018-06-22T08:26:14.641Z,20.81
2018-06-22T08:32:09.688Z,17.6
2018-06-22T08:38:04.703Z,18.42
2018-06-22T08:43:59.658Z,19.6
2018-06-22T08:49:54.710Z,17.23
2018-06-22T08:55:49.727Z,17.4
2018-06-22T09:01:44.716Z,21.64
2018-06-22T09:07:39.728Z,12.73
2018-06-22T09:13:34.739Z,15.44
2018-06-22T09:19:29.714Z,20.46
2018-06-22T09:25:24.850Z,13.37
2018-06-22T09:31:19.774Z,15.15
2018-06-22T09:37:14.744Z,15.66
2018-06-22T09:43:09.770Z,12.9
2018-06-22T09:49:04.744Z,11.68
2018-06-22T09:54:59.739Z,14.87
2018-06-22T10:00:54.750Z,11.28
2018-06-22T10:06:49.822Z,15.78
2018-06-22T10:12:44.878Z,16.46
2018-06-22T10:18:39.729Z,16.01
2018-06-22T10:24:34.788Z,16.61
2018-06-22T10:30:29.766Z,22.1
2018-06-22T10:36:24.772Z,20.79
2018-06-22T10:42:19.813Z,17.9
2018-06-22T10:48:14.809Z,16.06
2018-06-22T10:54:09.838Z,15.37
2018-06-22T11:00:04.861Z,14.67
2018-06-22T11:05:59.827Z,17.62
2018-06-22T11:11:54.812Z,40.97
2018-06-22T11:17:49.842Z,31.81
2018-06-22T11:23:44.799Z,33.22
2018-06-22T11:29:39.852Z,26.95
2018-06-22T11:35:34.882Z,26.22
2018-06-22T11:41:29.857Z,33.56
2018-06-22T11:47:24.903Z,25.03
2018-06-22T11:53:19.866Z,36.06
2018-06-22T11:59:14.957Z,29.8
2018-06-22T12:05:09.822Z,26.7
2018-06-22T12:11:04.833Z,29.21
2018-06-22T12:16:59.917Z,28.52
2018-06-22T12:22:54.853Z,29.48
2018-06-22T12:28:49.886Z,30.88
2018-06-22T12:34:44.910Z,23
2018-06-22T12:40:39.847Z,24.1
2018-06-22T12:46:34.909Z,21.83
2018-06-22T12:52:29.890Z,22.77
2018-06-22T12:58:24.922Z,17.93
2018-06-22T13:04:19.884Z,13.59
2018-06-22T13:10:14.900Z,14.84
2018-06-22T13:16:09.923Z,15.01
2018-06-22T13:22:05.008Z,15.02
2018-06-22T13:27:59.963Z,15.55
2018-06-22T13:33:54.984Z,15.29
2018-06-22T13:39:49.966Z,14.63
2018-06-22T13:45:44.900Z,14.09
2018-06-22T13:51:39.944Z,13.71
2018-06-22T13:57:34.979Z,14.75
2018-06-22T14:03:29.911Z,14.15
2018-06-22T14:09:25.020Z,16.03
2018-06-22T14:15:20.025Z,15.75
2018-06-22T14:21:14.977Z,16.43
2018-06-22T14:27:09.977Z,17.1
2018-06-22T14:33:04.983Z,14.04
2018-06-22T14:39:00.019Z,12.64
2018-06-22T14:44:54.990Z,11.29
2018-06-22T14:50:49.979Z,11.54
2018-06-22T14:56:44.992Z,10.24
2018-06-22T15:02:39.980Z,10.12
2018-06-22T15:08:35.022Z,9.62
2018-06-22T15:14:30.030Z,9.84
2018-06-22T15:20:25.033Z,9.73
2018-06-22T15:26:20.039Z,9.13
2018-06-22T15:32:14.987Z,10.17
2018-06-22T15:38:10.005Z,10.3
2018-06-22T15:44:05.052Z,9.94
2018-06-22T15:50:00.058Z,11.05
2018-06-22T15:55:55.052Z,10.5
2018-06-22T16:01:50.047Z,9.48
2018-06-22T16:07:45.076Z,9.64
2018-06-22T16:13:40.089Z,9.62
2018-06-22T16:19:35.054Z,9.85
2018-06-22T16:25:30.061Z,10.51
2018-06-22T16:31:25.058Z,9.99
2018-06-22T16:37:20.081Z,11.03
2018-06-22T16:43:15.064Z,10.76
2018-06-22T16:49:10.065Z,11.17
2018-06-22T16:55:05.089Z,13.9
2018-06-22T17:01:00.144Z,11.74
2018-06-22T17:06:55.105Z,11.67
2018-06-22T17:12:50.121Z,11.6
2018-06-22T17:24:40.092Z,9.96
2018-06-22T17:30:35.111Z,8.45
2018-06-22T17:36:30.106Z,8.3
2018-06-22T17:42:25.102Z,8.83
2018-06-22T17:48:20.152Z,7.89
2018-06-22T17:54:15.132Z,7.68
2018-06-22T18:00:10.243Z,8.02
2018-06-22T18:06:05.209Z,8.65
2018-06-22T18:12:00.212Z,9.77
2018-06-22T18:17:55.205Z,8.65
2018-06-22T18:23:50.197Z,9.29
2018-06-22T18:29:45.251Z,9
2018-06-22T18:35:40.234Z,8.85
2018-06-22T18:41:35.256Z,9.47
2018-06-22T18:47:30.195Z,8.53
2018-06-22T18:53:25.307Z,9.02
2018-06-22T18:59:20.220Z,9.36
2018-06-22T19:05:15.218Z,8.46
2018-06-22T19:11:10.243Z,8.28
2018-06-22T19:17:05.265Z,7.37
2018-06-22T19:23:00.325Z,7.33
2018-06-22T19:28:55.227Z,9.4
2018-06-22T19:34:50.234Z,9
2018-06-22T19:40:45.316Z,8.65
2018-06-22T19:46:40.288Z,10.1
2018-06-22T19:52:35.322Z,9.42
2018-06-22T19:58:30.285Z,10.24
2018-06-22T20:04:25.266Z,9.28
2018-06-22T20:10:20.277Z,10.49
2018-06-22T20:16:15.315Z,9.43
2018-06-22T20:22:10.400Z,8.22
2018-06-22T20:28:05.267Z,9.42
2018-06-22T20:34:00.380Z,7.21
2018-06-22T20:39:55.287Z,8.28
2018-06-22T20:45:50.340Z,10.03
2018-06-22T20:51:45.340Z,5.52
2018-06-22T20:57:40.296Z,6.07
2018-06-22T21:03:35.394Z,4.06
2018-06-22T21:09:30.329Z,4.72
2018-06-22T21:15:25.337Z,2.1
2018-06-22T21:21:20.416Z,2.24
2018-06-22T21:27:15.312Z,1.91
2018-06-22T21:33:10.313Z,2.5
2018-06-22T21:39:05.341Z,1.83
2018-06-22T21:45:00.313Z,1.69
2018-06-22T21:50:55.381Z,2.09
2018-06-22T21:56:50.339Z,2.9
2018-06-22T22:02:45.353Z,1.81
2018-06-22T22:08:40.355Z,2.39
2018-06-22T22:14:35.421Z,1.62
2018-06-22T22:20:30.390Z,3.14
2018-06-22T22:26:25.368Z,1.58
2018-06-22T22:32:20.429Z,1.03
2018-06-22T22:38:15.363Z,2.43
2018-06-22T22:44:10.498Z,1.92
2018-06-22T22:50:05.413Z,2.96
2018-06-22T22:56:00.380Z,1.3
2018-06-22T23:01:55.371Z,0.97
2018-06-22T23:07:50.384Z,2.24
2018-06-22T23:13:45.436Z,2.3
2018-06-22T23:19:40.445Z,1.55
2018-06-22T23:25:35.416Z,1.49
2018-06-22T23:31:30.414Z,0.95
2018-06-22T23:37:25.535Z,1.63
2018-06-22T23:43:20.409Z,2.31
2018-06-22T23:49:15.442Z,3.01
2018-06-22T23:55:10.474Z,1.21
